createdAt,value
2022-12-19T00:01:19.152Z,101011.59
2022-12-19T00:03:54.219Z,100998.75
2022-12-19T00:06:30.226Z,100984.94
2022-12-19T00:09:01.809Z,100993.53
2022-12-19T00:11:33.966Z,100987.47
2022-12-19T00:14:05.855Z,100987.56
2022-12-19T00:16:37.556Z,100978.06
2022-12-19T00:19:10.552Z,100959.03
2022-12-19T00:21:42.177Z,100954.75
2022-12-19T00:24:20.868Z,100962.28
2022-12-19T00:26:55.592Z,100955.50
2022-12-19T00:29:28.395Z,100965.72
2022-12-19T00:31:59.979Z,100969.06
2022-12-19T00:34:31.638Z,100972.47
2022-12-19T00:37:06.958Z,100984.34
2022-12-19T00:39:41.817Z,100968.75
2022-12-19T00:42:13.465Z,100966.13
2022-12-19T00:44:47.677Z,100962.72
2022-12-19T00:47:19.273Z,100959.34
2022-12-19T00:49:51.024Z,100961.09
2022-12-19T00:52:22.614Z,100967.09
2022-12-19T00:54:57.209Z,100970.44
2022-12-19T00:57:29.847Z,100973.84
2022-12-19T01:00:01.528Z,100972.13
2022-12-19T01:02:33.234Z,100973.75
2022-12-19T01:05:08.461Z,100975.56
2022-12-19T01:07:43.026Z,100953.38
2022-12-19T01:10:14.705Z,100962.00
2022-12-19T01:12:46.277Z,100950.84
2022-12-19T01:15:20.727Z,100942.81
2022-12-19T01:17:52.363Z,100935.22
2022-12-19T01:20:29.654Z,100936.25
2022-12-19T01:23:02.454Z,100938.00
2022-12-19T01:25:39.125Z,100936.19
2022-12-19T01:28:16.501Z,100936.09
2022-12-19T01:30:49.597Z,100923.06
2022-12-19T01:33:23.013Z,100912.75
2022-12-19T01:35:54.644Z,100899.69
2022-12-19T01:38:26.222Z,100894.88
2022-12-19T01:40:57.884Z,100895.97
2022-12-19T01:43:34.237Z,100896.03
2022-12-19T01:46:14.687Z,100914.03
2022-12-19T01:48:47.992Z,100911.38
2022-12-19T01:51:26.828Z,100899.47
2022-12-19T01:54:06.640Z,100924.97
2022-12-19T01:56:42.473Z,100919.72
2022-12-19T01:59:19.793Z,100905.03
2022-12-19T02:02:00.403Z,100902.38
2022-12-19T02:04:32.804Z,100891.94
2022-12-19T02:07:15.997Z,100874.81
2022-12-19T02:09:57.339Z,100887.56
2022-12-19T02:12:43.146Z,100890.00
2022-12-19T02:15:17.335Z,100884.00
2022-12-19T02:18:11.711Z,100868.44
2022-12-19T02:21:05.007Z,100877.78
2022-12-19T02:24:14.708Z,100876.06
2022-12-19T02:26:59.594Z,100869.06
2022-12-19T02:30:06.347Z,100854.69
2022-12-19T02:33:21.037Z,100847.81
2022-12-19T02:36:05.244Z,100855.81
2022-12-19T02:38:43.724Z,100854.09
2022-12-19T02:41:26.079Z,100866.22
2022-12-19T02:43:59.209Z,100863.53
2022-12-19T02:46:34.733Z,100865.31
2022-12-19T02:49:06.587Z,100851.53
2022-12-19T02:51:38.150Z,100863.53
2022-12-19T02:54:12.836Z,100854.09
2022-12-19T02:57:00.420Z,100868.56
2022-12-19T02:59:42.994Z,100852.97
2022-12-19T03:02:43.185Z,100852.09
2022-12-19T03:05:45.988Z,100847.56
2022-12-19T03:08:47.393Z,100842.31
2022-12-19T03:11:23.251Z,100839.59
2022-12-19T03:14:00.733Z,100839.50
2022-12-19T03:16:35.907Z,100834.31
2022-12-19T03:19:10.579Z,100843.75
2022-12-19T03:21:47.661Z,100852.25
2022-12-19T03:24:22.932Z,100839.34
2022-12-19T03:27:22.612Z,100823.91
2022-12-19T03:30:07.723Z,100832.72
2022-12-19T03:32:41.558Z,100837.72
2022-12-19T03:35:20.506Z,100837.72
2022-12-19T03:37:55.205Z,100836.91
2022-12-19T03:40:28.769Z,100831.00
2022-12-19T03:43:11.292Z,100835.34
2022-12-19T03:45:43.457Z,100823.41
2022-12-19T03:48:47.792Z,100838.84
2022-12-19T03:51:46.151Z,100837.97
2022-12-19T03:54:27.367Z,100843.06
2022-12-19T03:57:20.074Z,100843.94
2022-12-19T04:00:00.913Z,100846.56
2022-12-19T04:02:36.246Z,100846.50
2022-12-19T04:05:10.513Z,100859.38
2022-12-19T04:07:46.274Z,100851.59
2022-12-19T04:10:21.825Z,100860.81
2022-12-19T04:13:01.819Z,100871.09
2022-12-19T04:16:00.427Z,100875.28
2022-12-19T04:18:33.776Z,100874.28
2022-12-19T04:21:19.414Z,100858.72
2022-12-19T04:24:20.673Z,100853.53
2022-12-19T04:26:54.923Z,100847.53
2022-12-19T04:29:28.630Z,100832.88
2022-12-19T04:32:02.540Z,100829.50
2022-12-19T04:34:36.882Z,100838.81
2022-12-19T04:37:12.383Z,100824.94
2022-12-19T04:39:44.120Z,100835.97
2022-12-19T04:42:15.699Z,100822.25
2022-12-19T04:44:47.331Z,100818.22
2022-12-19T04:47:19.135Z,100814.94
2022-12-19T04:49:51.801Z,100803.84
2022-12-19T04:52:23.355Z,100802.91
2022-12-19T04:54:55.942Z,100810.63
2022-12-19T04:57:34.415Z,100809.03
2022-12-19T05:00:08.645Z,100797.00
2022-12-19T05:02:40.448Z,100802.03
2022-12-19T05:05:14.398Z,100802.13
2022-12-19T05:07:49.677Z,100807.28
2022-12-19T05:10:21.546Z,100815.72
2022-12-19T05:12:55.137Z,100807.19
2022-12-19T05:15:26.749Z,100797.03
2022-12-19T05:17:58.333Z,100803.25
2022-12-19T05:20:29.960Z,100805.00
2022-12-19T05:23:05.009Z,100808.44
2022-12-19T05:25:38.378Z,100813.47
2022-12-19T05:28:11.171Z,100813.44
2022-12-19T05:30:49.159Z,100819.22
2022-12-19T05:33:25.894Z,100825.91
2022-12-19T05:35:57.567Z,100817.94
2022-12-19T05:38:32.514Z,100831.53
2022-12-19T05:41:15.370Z,100835.63
2022-12-19T05:43:54.715Z,100809.59
2022-12-19T05:46:27.417Z,100808.53
2022-12-19T05:48:59.413Z,100811.09
2022-12-19T05:51:31.582Z,100821.34
2022-12-19T05:54:03.314Z,100815.34
2022-12-19T05:56:34.952Z,100823.06
2022-12-19T05:59:06.516Z,100829.97
2022-12-19T06:01:38.438Z,100824.72
2022-12-19T06:04:10.143Z,100825.50
2022-12-19T06:06:44.543Z,100825.44
2022-12-19T06:09:16.190Z,100812.38
2022-12-19T06:11:47.842Z,100817.34
2022-12-19T06:14:19.415Z,100811.56
2022-12-19T06:16:51.003Z,100813.25
2022-12-19T06:19:22.786Z,100826.22
2022-12-19T06:21:54.346Z,100829.63
2022-12-19T06:24:26.797Z,100832.09
2022-12-19T06:26:59.404Z,100836.34
2022-12-19T06:29:31.033Z,100826.88
2022-12-19T06:32:02.654Z,100821.59
2022-12-19T06:35:02.833Z,100817.00
2022-12-19T06:37:25.893Z,100831.31
2022-12-19T06:39:58.459Z,100833.72
2022-12-19T06:42:30.057Z,100834.66
2022-12-19T06:45:01.704Z,100838.06
2022-12-19T06:47:33.245Z,100842.25
2022-12-19T06:50:05.092Z,100848.44
2022-12-19T06:52:36.940Z,100846.63
2022-12-19T06:55:09.408Z,100826.81
2022-12-19T06:57:46.046Z,100809.59
2022-12-19T07:00:17.974Z,100817.22
2022-12-19T07:02:51.762Z,100811.41
2022-12-19T07:05:23.644Z,100811.69
2022-12-19T07:07:58.254Z,100818.53
2022-12-19T07:10:29.918Z,100821.09
2022-12-19T07:13:01.993Z,100816.69
2022-12-19T07:15:35.031Z,100818.38
2022-12-19T07:18:09.489Z,100815.75
2022-12-19T07:20:45.220Z,100814.84
2022-12-19T07:23:20.369Z,100820.66
2022-12-19T07:25:51.994Z,100827.34
2022-12-19T07:28:23.770Z,100826.31
2022-12-19T07:30:56.035Z,100823.56
2022-12-19T07:33:27.868Z,100838.13
2022-12-19T07:35:59.443Z,100851.03
2022-12-19T07:38:30.997Z,100843.28
2022-12-19T07:41:02.925Z,100861.13
2022-12-19T07:43:34.567Z,100862.63
2022-12-19T07:46:06.222Z,100861.59
2022-12-19T07:48:37.943Z,100851.94
2022-12-19T07:51:09.534Z,100856.13
2022-12-19T07:53:41.181Z,100856.03
2022-12-19T07:56:12.747Z,100851.56
2022-12-19T07:58:44.813Z,100857.53
2022-12-19T08:01:16.569Z,100865.16
2022-12-19T08:03:48.212Z,100865.97
2022-12-19T08:06:20.226Z,100873.97
2022-12-19T08:08:51.914Z,100867.16
2022-12-19T08:11:27.430Z,100865.28
2022-12-19T08:13:59.393Z,100869.22
2022-12-19T08:16:31.199Z,100864.91
2022-12-19T08:19:03.614Z,100863.94
2022-12-19T08:21:35.235Z,100850.75
2022-12-19T08:24:07.143Z,100848.03
2022-12-19T08:26:43.151Z,100851.81
2022-12-19T08:29:17.695Z,100852.44
2022-12-19T08:31:49.434Z,100843.13
2022-12-19T08:34:21.109Z,100835.25
2022-12-19T08:36:52.693Z,100827.34
2022-12-19T08:39:24.300Z,100806.59
2022-12-19T08:41:55.849Z,100797.06
2022-12-19T08:44:27.530Z,100792.53
2022-12-19T08:46:59.163Z,100790.69
2022-12-19T08:49:30.825Z,100785.72
2022-12-19T08:52:02.651Z,100776.09
2022-12-19T08:54:34.293Z,100768.31
2022-12-19T08:57:05.862Z,100762.28
2022-12-19T08:59:37.487Z,100763.34
2022-12-19T09:02:11.149Z,100759.41
2022-12-19T09:05:58.786Z,100756.34
2022-12-19T09:07:37.856Z,100738.66
2022-12-19T09:10:10.470Z,100733.28
2022-12-19T09:12:42.073Z,100714.09
2022-12-19T09:15:14.096Z,100709.50
2022-12-19T09:17:45.834Z,100707.75
2022-12-19T09:20:22.945Z,100711.31
2022-12-19T09:22:55.290Z,100719.19
2022-12-19T09:25:26.898Z,100731.66
2022-12-19T09:28:26.921Z,100725.59
2022-12-19T09:31:07.765Z,100720.41
2022-12-19T09:33:43.562Z,100702.81
2022-12-19T09:36:18.396Z,100705.13
2022-12-19T09:38:53.496Z,100703.03
2022-12-19T09:41:34.223Z,100699.72
2022-12-19T09:44:15.461Z,100703.13
2022-12-19T09:46:57.173Z,100693.72
2022-12-19T09:49:42.813Z,100683.94
2022-12-19T09:52:30.425Z,100676.75
2022-12-19T09:55:22.996Z,100670.78
2022-12-19T09:57:54.540Z,100666.44
2022-12-19T10:00:42.131Z,100670.63
2022-12-19T10:03:33.554Z,100672.31
2022-12-19T10:07:11.921Z,100689.94
2022-12-19T10:10:55.565Z,100698.00
2022-12-19T10:12:42.502Z,100690.84
2022-12-19T10:16:00.538Z,100682.97
2022-12-19T10:18:42.230Z,100689.81
2022-12-19T10:21:36.976Z,100720.34
2022-12-19T10:25:08.019Z,100717.19
2022-12-19T10:27:58.489Z,100707.88
2022-12-19T10:30:36.565Z,100711.75
2022-12-19T10:33:23.557Z,100712.91
2022-12-19T10:36:01.988Z,100708.38
2022-12-19T10:38:46.197Z,100693.53
2022-12-19T10:41:36.767Z,100701.56
2022-12-19T10:44:15.884Z,100698.84
2022-12-19T10:46:49.717Z,100697.03
2022-12-19T10:49:24.965Z,100694.84
2022-12-19T10:51:56.505Z,100692.25
2022-12-19T10:54:40.266Z,100700.06
2022-12-19T10:57:30.055Z,100698.09
2022-12-19T11:00:05.385Z,100694.56
2022-12-19T11:02:49.341Z,100689.88
2022-12-19T11:05:29.024Z,100683.75
2022-12-19T11:08:07.970Z,100681.94
2022-12-19T11:11:12.037Z,100678.22
2022-12-19T11:19:17.625Z,100677.16
2022-12-19T11:24:45.797Z,100671.78
2022-12-19T11:29:24.898Z,100671.53
2022-12-19T11:29:44.181Z,100671.94
2022-12-19T11:29:44.967Z,100665.34
2022-12-19T11:30:44.320Z,100663.28
2022-12-19T11:34:23.700Z,100662.38
2022-12-19T11:37:18.465Z,100661.69
2022-12-19T11:40:41.743Z,100650.97
2022-12-19T11:43:43.602Z,100639.06
2022-12-19T11:46:23.931Z,100633.66
2022-12-19T11:49:23.304Z,100629.16
2022-12-19T11:52:03.991Z,100632.16
2022-12-19T11:55:04.630Z,100627.94
2022-12-19T11:57:39.586Z,100620.44
2022-12-19T12:00:30.465Z,100616.84
2022-12-19T12:03:35.568Z,100608.66
2022-12-19T12:06:16.210Z,100616.38
2022-12-19T12:11:31.607Z,100622.59
2022-12-19T12:15:01.793Z,100618.78
2022-12-19T12:30:19.041Z,100608.78
2022-12-19T12:31:09.270Z,100615.81
2022-12-19T12:31:17.060Z,100618.41
2022-12-19T12:31:42.627Z,100601.44
2022-12-19T12:32:01.912Z,100591.69
2022-12-19T12:35:46.567Z,100611.66
2022-12-19T12:36:53.126Z,100603.47
2022-12-19T12:38:22.969Z,100596.75
2022-12-19T12:41:09.465Z,100594.63
2022-12-19T12:43:54.935Z,100589.66
2022-12-19T12:46:31.365Z,100570.44
2022-12-19T12:49:30.356Z,100573.72
2022-12-19T12:52:06.239Z,100564.47
2022-12-19T12:54:44.722Z,100566.47
2022-12-19T12:57:37.565Z,100570.75
2022-12-19T13:00:31.851Z,100562.03
2022-12-19T13:03:13.103Z,100554.69
2022-12-19T13:05:54.881Z,100554.16
2022-12-19T13:08:46.721Z,100547.69
2022-12-19T13:11:37.457Z,100552.50
2022-12-19T13:14:39.798Z,100547.22
2022-12-19T13:17:44.726Z,100550.91
2022-12-19T13:20:17.177Z,100554.78
2022-12-19T13:23:00.561Z,100540.41
2022-12-19T13:25:35.004Z,100539.97
2022-12-19T13:28:26.445Z,100545.16
2022-12-19T13:31:20.787Z,100546.78
2022-12-19T13:33:55.647Z,100541.16
2022-12-19T13:39:48.680Z,100535.28
2022-12-19T13:40:09.104Z,100532.81
2022-12-19T13:43:14.857Z,100531.69
2022-12-19T13:45:53.476Z,100524.72
2022-12-19T13:48:40.128Z,100523.50
2022-12-19T13:51:13.555Z,100522.78
2022-12-19T13:53:45.145Z,100526.50
2022-12-19T13:56:19.358Z,100523.88
2022-12-19T13:59:03.770Z,100527.88
2022-12-19T14:01:37.482Z,100528.50
2022-12-19T14:04:20.499Z,100524.38
2022-12-19T14:07:06.643Z,100526.44
2022-12-19T14:11:26.477Z,100526.50
2022-12-19T14:13:55.602Z,100530.41
2022-12-19T14:15:51.981Z,100521.78
2022-12-19T14:18:42.877Z,100530.09
2022-12-19T14:22:06.091Z,100538.63
2022-12-19T14:24:25.056Z,100534.28
2022-12-19T14:28:18.525Z,100528.41
2022-12-19T14:30:30.381Z,100535.31
2022-12-19T14:33:47.422Z,100544.56
2022-12-19T14:36:12.072Z,100535.69
2022-12-19T14:39:24.217Z,100527.94
2022-12-19T14:42:01.518Z,100533.31
2022-12-19T14:52:08.383Z,100525.03
2022-12-19T14:53:52.729Z,100527.75
2022-12-19T14:54:22.685Z,100516.81
2022-12-19T14:54:22.926Z,100517.56
2022-12-19T14:59:35.775Z,100507.75
2022-12-19T15:02:07.465Z,100514.75
2022-12-19T15:04:51.396Z,100514.03
2022-12-19T15:07:29.961Z,100508.59
2022-12-19T15:11:02.371Z,100506.47
2022-12-19T15:14:47.391Z,100504.88
2022-12-19T15:16:34.600Z,100508.22
2022-12-19T15:19:12.622Z,100494.94
2022-12-19T15:21:44.220Z,100492.72
2022-12-19T15:24:18.657Z,100488.66
2022-12-19T15:26:53.355Z,100493.84
2022-12-19T15:29:26.624Z,100487.81
2022-12-19T15:31:58.469Z,100488.81
2022-12-19T15:34:37.373Z,100484.41
2022-12-19T15:37:11.822Z,100475.97
2022-12-19T15:39:44.934Z,100475.38
2022-12-19T15:42:25.125Z,100479.66
2022-12-19T15:44:59.875Z,100479.34
2022-12-19T15:47:33.344Z,100482.56
2022-12-19T15:50:29.346Z,100478.78
2022-12-19T15:53:05.770Z,100482.00
2022-12-19T15:55:39.566Z,100481.56
2022-12-19T15:58:13.573Z,100474.28
2022-12-19T16:00:57.595Z,100480.91
2022-12-19T16:03:29.595Z,100488.78
2022-12-19T16:06:01.408Z,100477.72
2022-12-19T16:08:32.995Z,100475.13
2022-12-19T16:11:04.675Z,100469.16
2022-12-19T16:13:36.339Z,100474.94
2022-12-19T16:16:15.412Z,100478.84
2022-12-19T16:18:47.602Z,100479.38
2022-12-19T16:21:29.223Z,100478.53
2022-12-19T16:24:05.306Z,100463.66
2022-12-19T16:26:40.281Z,100471.31
2022-12-19T16:29:23.924Z,100472.81
2022-12-19T16:31:56.880Z,100464.88
2022-12-19T16:34:28.622Z,100472.44
2022-12-19T16:37:00.354Z,100478.28
2022-12-19T16:39:31.922Z,100472.94
2022-12-19T16:42:07.102Z,100476.47
2022-12-19T16:44:38.688Z,100472.44
2022-12-19T16:47:16.121Z,100465.53
2022-12-19T16:49:47.786Z,100458.50
2022-12-19T16:52:19.364Z,100461.09
2022-12-19T16:54:51.179Z,100459.34
2022-12-19T16:57:22.875Z,100474.00
2022-12-19T16:59:54.600Z,100472.19
2022-12-19T17:02:38.533Z,100472.09
2022-12-19T17:05:25.341Z,100472.00
2022-12-19T17:07:58.238Z,100463.47
2022-12-19T17:10:33.519Z,100460.78
2022-12-19T17:13:05.189Z,100458.06
2022-12-19T17:15:38.787Z,100451.94
2022-12-19T17:18:27.147Z,100451.28
2022-12-19T17:20:59.098Z,100441.81
2022-12-19T17:23:32.616Z,100431.47
2022-12-19T17:26:04.481Z,100434.31
2022-12-19T17:28:36.147Z,100443.03
2022-12-19T17:31:17.595Z,100438.94
2022-12-19T17:33:58.035Z,100448.56
2022-12-19T17:36:37.017Z,100447.59
2022-12-19T17:39:36.257Z,100451.94
2022-12-19T17:42:18.464Z,100467.31
2022-12-19T17:44:50.870Z,100472.25
2022-12-19T17:47:22.694Z,100473.78
2022-12-19T17:49:55.960Z,100473.69
2022-12-19T17:52:29.217Z,100472.78
2022-12-19T17:55:01.003Z,100469.84
2022-12-19T17:57:32.662Z,100458.59
2022-12-19T18:00:04.861Z,100452.47
2022-12-19T18:02:45.863Z,100438.88
2022-12-19T18:05:25.907Z,100457.16
2022-12-19T18:07:57.623Z,100451.09
2022-12-19T18:10:31.405Z,100443.22
2022-12-19T18:13:04.377Z,100444.31
2022-12-19T18:15:36.170Z,100438.53
2022-12-19T18:18:13.994Z,100444.66
2022-12-19T18:20:45.787Z,100440.38
2022-12-19T18:23:20.772Z,100444.56
2022-12-19T18:25:59.306Z,100439.53
2022-12-19T18:28:33.036Z,100428.03
2022-12-19T18:31:14.305Z,100415.94
2022-12-19T18:33:55.408Z,100420.31
2022-12-19T18:36:33.988Z,100409.75
2022-12-19T18:39:26.900Z,100414.94
2022-12-19T18:41:58.521Z,100420.16
2022-12-19T18:44:30.119Z,100407.22
2022-12-19T18:47:02.082Z,100398.41
2022-12-19T18:49:36.667Z,100399.31
2022-12-19T18:52:10.570Z,100391.78
2022-12-19T18:54:42.455Z,100386.41
2022-12-19T18:57:14.642Z,100374.16
2022-12-19T18:59:47.864Z,100378.78
2022-12-19T19:02:26.552Z,100390.44
2022-12-19T19:04:59.318Z,100403.19
2022-12-19T19:07:31.005Z,100402.84
2022-12-19T19:10:06.218Z,100397.50
2022-12-19T19:12:45.036Z,100390.41
2022-12-19T19:15:19.108Z,100397.31
2022-12-19T19:18:00.207Z,100395.56
2022-12-19T19:20:36.188Z,100404.97
2022-12-19T19:23:11.370Z,100413.44
2022-12-19T19:25:44.244Z,100419.28
2022-12-19T19:28:16.093Z,100412.19
2022-12-19T19:30:47.723Z,100409.50
2022-12-19T19:33:25.475Z,100415.63
2022-12-19T19:36:04.683Z,100399.50
2022-12-19T19:38:45.454Z,100405.81
2022-12-19T19:41:17.474Z,100397.81
2022-12-19T19:43:49.106Z,100393.28
2022-12-19T19:46:21.988Z,100390.50
2022-12-19T19:48:54.082Z,100373.41
2022-12-19T19:51:29.067Z,100364.06
2022-12-19T19:54:00.980Z,100347.78
2022-12-19T19:56:32.615Z,100340.00
2022-12-19T19:59:07.818Z,100342.84
2022-12-19T20:01:42.290Z,100349.91
2022-12-19T20:04:16.635Z,100361.22
2022-12-19T20:06:48.435Z,100388.09
2022-12-19T20:09:20.094Z,100382.47
2022-12-19T20:11:51.739Z,100396.81
2022-12-19T20:14:23.884Z,100400.84
2022-12-19T20:16:55.812Z,100385.75
2022-12-19T20:19:27.558Z,100390.75
2022-12-19T20:22:00.211Z,100399.47
2022-12-19T20:24:32.038Z,100395.47
2022-12-19T20:27:03.667Z,100391.94
2022-12-19T20:29:35.395Z,100387.66
2022-12-19T20:32:07.085Z,100395.47
2022-12-19T20:34:38.740Z,100403.19
2022-12-19T20:37:10.516Z,100411.66
2022-12-19T20:39:42.359Z,100410.75
2022-12-19T20:42:14.010Z,100405.38
2022-12-19T20:44:45.662Z,100397.47
2022-12-19T20:47:17.341Z,100393.09
2022-12-19T20:49:49.041Z,100397.38
2022-12-19T20:52:20.738Z,100403.50
2022-12-19T20:54:52.348Z,100406.13
2022-12-19T20:57:23.897Z,100400.97
2022-12-19T20:59:55.655Z,100399.34
2022-12-19T21:02:27.508Z,100405.53
2022-12-19T21:04:59.891Z,100411.59
2022-12-19T21:07:31.550Z,100406.44
2022-12-19T21:10:03.387Z,100402.84
2022-12-19T21:12:34.931Z,100403.84
2022-12-19T21:15:07.125Z,100396.16
2022-12-19T21:17:38.697Z,100378.16
2022-12-19T21:20:11.124Z,100377.44
2022-12-19T21:22:42.681Z,100361.81
2022-12-19T21:25:14.460Z,100361.47
2022-12-19T21:27:46.771Z,100357.38
2022-12-19T21:30:19.102Z,100366.09
2022-12-19T21:32:50.726Z,100368.88
2022-12-19T21:35:22.620Z,100365.31
2022-12-19T21:37:54.257Z,100361.97
2022-12-19T21:40:25.880Z,100368.03
2022-12-19T21:42:57.443Z,100363.56
2022-12-19T21:45:29.404Z,100365.44
2022-12-19T21:48:01.509Z,100367.13
2022-12-19T21:50:36.262Z,100366.94
2022-12-19T21:53:07.912Z,100373.91
2022-12-19T21:55:40.010Z,100366.94
2022-12-19T21:58:11.620Z,100360.97
2022-12-19T22:00:43.249Z,100359.31
2022-12-19T22:03:16.325Z,100355.28
2022-12-19T22:05:49.064Z,100366.75
2022-12-19T22:08:20.600Z,100364.16
2022-12-19T22:10:52.255Z,100359.72
2022-12-19T22:13:24.077Z,100357.28
2022-12-19T22:16:01.926Z,100342.69
2022-12-19T22:18:35.316Z,100336.72
2022-12-19T22:21:09.285Z,100331.59
2022-12-19T22:23:41.855Z,100328.91
2022-12-19T22:26:14.694Z,100324.13
2022-12-19T22:28:48.789Z,100337.31
2022-12-19T22:31:23.911Z,100334.84
2022-12-19T22:34:08.029Z,100330.44
2022-12-19T22:36:41.380Z,100336.72
2022-12-19T22:39:17.704Z,100335.03
2022-12-19T22:41:49.371Z,100335.19
2022-12-19T22:44:23.640Z,100332.00
2022-12-19T22:46:55.377Z,100332.84
2022-12-19T22:49:27.082Z,100328.56
2022-12-19T22:51:58.690Z,100328.75
2022-12-19T22:54:30.327Z,100318.28
2022-12-19T22:57:01.945Z,100316.50
2022-12-19T22:59:33.593Z,100328.16
2022-12-19T23:02:05.468Z,100337.53
2022-12-19T23:04:37.248Z,100338.56
2022-12-19T23:07:08.840Z,100326.66
2022-12-19T23:09:40.486Z,100319.78
2022-12-19T23:12:12.109Z,100319.06
2022-12-19T23:14:43.736Z,100316.66
2022-12-19T23:17:15.589Z,100321.94
2022-12-19T23:19:47.261Z,100317.66
2022-12-19T23:22:18.936Z,100325.50
2022-12-19T23:24:50.537Z,100318.66
2022-12-19T23:27:22.354Z,100318.66
2022-12-19T23:29:53.923Z,100317.91
2022-12-19T23:32:25.580Z,100317.13
2022-12-19T23:34:57.227Z,100319.91
2022-12-19T23:37:28.806Z,100318.16
2022-12-19T23:40:00.374Z,100331.16
2022-12-19T23:42:31.985Z,100319.13
2022-12-19T23:45:03.727Z,100322.91
2022-12-19T23:47:35.386Z,100320.38
2022-12-19T23:50:07.750Z,100317.03
2022-12-19T23:52:39.420Z,100307.69
2022-12-19T23:55:11.559Z,100319.13
2022-12-19T23:57:43.164Z,100312.31
